sensor_id;sensor_type;location;lat;lon;timestamp;P1;durP1;ratioP1;P2;durP2;ratioP2
18999;SDS011;9633;50.980;13.850;2023-10-08T00:00:14;7.57;;;4.10;;
18999;SDS011;9633;50.980;13.850;2023-10-08T00:02:02;6.77;;;3.93;;
18999;SDS011;9633;50.980;13.850;2023-10-08T00:03:37;9.63;;;3.93;;
18999;SDS011;9633;50.980;13.850;2023-10-08T00:05:10;7.00;;;4.30;;
18999;SDS011;9633;50.980;13.850;2023-10-08T00:06:45;6.77;;;4.00;;
18999;SDS011;9633;50.980;13.850;2023-10-08T00:08:17;7.97;;;3.90;;
18999;SDS011;9633;50.980;13.850;2023-10-08T00:09:53;6.53;;;4.13;;
18999;SDS011;9633;50.980;13.850;2023-10-08T00:11:26;7.37;;;4.10;;
18999;SDS011;9633;50.980;13.850;2023-10-08T00:13:00;10.57;;;4.60;;
18999;SDS011;9633;50.980;13.850;2023-10-08T00:14:34;7.67;;;4.10;;
18999;SDS011;9633;50.980;13.850;2023-10-08T00:16:15;8.00;;;4.30;;
18999;SDS011;9633;50.980;13.850;2023-10-08T00:17:50;6.63;;;3.87;;
18999;SDS011;9633;50.980;13.850;2023-10-08T00:19:26;6.73;;;4.10;;
18999;SDS011;9633;50.980;13.850;2023-10-08T00:21:05;7.33;;;3.90;;
18999;SDS011;9633;50.980;13.850;2023-10-08T00:22:48;6.03;;;3.93;;
18999;SDS011;9633;50.980;13.850;2023-10-08T00:24:20;8.60;;;3.90;;
18999;SDS011;9633;50.980;13.850;2023-10-08T00:26:00;6.97;;;3.80;;
18999;SDS011;9633;50.980;13.850;2023-10-08T00:27:38;8.10;;;4.33;;
18999;SDS011;9633;50.980;13.850;2023-10-08T00:29:11;7.60;;;4.30;;
18999;SDS011;9633;50.980;13.850;2023-10-08T00:30:47;7.07;;;4.40;;
18999;SDS011;9633;50.980;13.850;2023-10-08T00:32:21;11.47;;;4.23;;
18999;SDS011;9633;50.980;13.850;2023-10-08T00:33:55;6.80;;;4.03;;
18999;SDS011;9633;50.980;13.850;2023-10-08T00:35:28;7.07;;;3.97;;
18999;SDS011;9633;50.980;13.850;2023-10-08T00:37:01;8.80;;;4.17;;
18999;SDS011;9633;50.980;13.850;2023-10-08T00:38:40;7.07;;;4.20;;
18999;SDS011;9633;50.980;13.850;2023-10-08T00:40:16;7.67;;;3.63;;
18999;SDS011;9633;50.980;13.850;2023-10-08T00:41:54;9.03;;;4.33;;
18999;SDS011;9633;50.980;13.850;2023-10-08T00:43:31;7.97;;;4.47;;
18999;SDS011;9633;50.980;13.850;2023-10-08T00:45:05;6.50;;;4.17;;
18999;SDS011;9633;50.980;13.850;2023-10-08T00:46:39;9.70;;;4.10;;
18999;SDS011;9633;50.980;13.850;2023-10-08T00:48:19;7.27;;;4.37;;
18999;SDS011;9633;50.980;13.850;2023-10-08T00:49:53;8.20;;;4.50;;
18999;SDS011;9633;50.980;13.850;2023-10-08T00:51:34;11.77;;;4.33;;
18999;SDS011;9633;50.980;13.850;2023-10-08T00:53:12;6.17;;;3.80;;
18999;SDS011;9633;50.980;13.850;2023-10-08T00:54:52;10.53;;;4.07;;
18999;SDS011;9633;50.980;13.850;2023-10-08T00:56:44;7.03;;;4.30;;
18999;SDS011;9633;50.980;13.850;2023-10-08T00:58:26;8.10;;;4.00;;
18999;SDS011;9633;50.980;13.850;2023-10-08T00:59:59;9.30;;;4.13;;
18999;SDS011;9633;50.980;13.850;2023-10-08T01:01:32;9.30;;;4.77;;
18999;SDS011;9633;50.980;13.850;2023-10-08T01:03:10;9.87;;;4.67;;
18999;SDS011;9633;50.980;13.850;2023-10-08T01:04:48;11.73;;;4.67;;
18999;SDS011;9633;50.980;13.850;2023-10-08T01:06:21;7.00;;;4.50;;
18999;SDS011;9633;50.980;13.850;2023-10-08T01:08:01;11.23;;;4.90;;
18999;SDS011;9633;50.980;13.850;2023-10-08T01:09:38;7.43;;;4.23;;
18999;SDS011;9633;50.980;13.850;2023-10-08T01:11:18;10.40;;;5.07;;
18999;SDS011;9633;50.980;13.850;2023-10-08T01:12:52;10.47;;;4.53;;
18999;SDS011;9633;50.980;13.850;2023-10-08T01:14:38;10.53;;;4.90;;
18999;SDS011;9633;50.980;13.850;2023-10-08T01:16:13;9.33;;;4.80;;
18999;SDS011;9633;50.980;13.850;2023-10-08T01:17:49;11.00;;;4.77;;
18999;SDS011;9633;50.980;13.850;2023-10-08T01:19:29;7.63;;;5.00;;
18999;SDS011;9633;50.980;13.850;2023-10-08T01:21:10;6.93;;;4.33;;
18999;SDS011;9633;50.980;13.850;2023-10-08T01:22:50;8.80;;;4.80;;
18999;SDS011;9633;50.980;13.850;2023-10-08T01:24:24;10.70;;;5.50;;
18999;SDS011;9633;50.980;13.850;2023-10-08T01:25:59;7.97;;;4.53;;
18999;SDS011;9633;50.980;13.850;2023-10-08T01:27:42;10.77;;;5.13;;
18999;SDS011;9633;50.980;13.850;2023-10-08T01:29:16;8.03;;;4.77;;
18999;SDS011;9633;50.980;13.850;2023-10-08T01:30:52;9.90;;;5.30;;
18999;SDS011;9633;50.980;13.850;2023-10-08T01:32:25;9.00;;;4.70;;
18999;SDS011;9633;50.980;13.850;2023-10-08T01:34:05;10.57;;;5.10;;
18999;SDS011;9633;50.980;13.850;2023-10-08T01:35:40;13.33;;;4.70;;
18999;SDS011;9633;50.980;13.850;2023-10-08T01:37:14;8.80;;;4.87;;
18999;SDS011;9633;50.980;13.850;2023-10-08T01:38:49;7.73;;;4.80;;
18999;SDS011;9633;50.980;13.850;2023-10-08T01:40:23;12.53;;;6.17;;
18999;SDS011;9633;50.980;13.850;2023-10-08T01:41:55;12.47;;;6.03;;
18999;SDS011;9633;50.980;13.850;2023-10-08T01:43:29;12.43;;;6.27;;
18999;SDS011;9633;50.980;13.850;2023-10-08T01:45:02;10.90;;;6.70;;
18999;SDS011;9633;50.980;13.850;2023-10-08T01:46:39;11.97;;;7.10;;
18999;SDS011;9633;50.980;13.850;2023-10-08T01:48:12;14.10;;;7.70;;
18999;SDS011;9633;50.980;13.850;2023-10-08T01:49:46;13.03;;;8.07;;
18999;SDS011;9633;50.980;13.850;2023-10-08T01:51:20;10.73;;;7.80;;
18999;SDS011;9633;50.980;13.850;2023-10-08T01:53:09;15.57;;;9.63;;
18999;SDS011;9633;50.980;13.850;2023-10-08T01:54:44;13.03;;;9.27;;
18999;SDS011;9633;50.980;13.850;2023-10-08T01:56:17;13.87;;;10.60;;
18999;SDS011;9633;50.980;13.850;2023-10-08T01:57:50;18.37;;;12.50;;
18999;SDS011;9633;50.980;13.850;2023-10-08T01:59:24;17.33;;;12.33;;
18999;SDS011;9633;50.980;13.850;2023-10-08T02:00:56;18.37;;;12.23;;
18999;SDS011;9633;50.980;13.850;2023-10-08T02:02:31;19.10;;;12.87;;
18999;SDS011;9633;50.980;13.850;2023-10-08T02:04:05;17.93;;;13.60;;
18999;SDS011;9633;50.980;13.850;2023-10-08T02:05:40;17.30;;;12.63;;
18999;SDS011;9633;50.980;13.850;2023-10-08T02:07:13;18.73;;;13.63;;
18999;SDS011;9633;50.980;13.850;2023-10-08T02:08:47;18.30;;;13.23;;
18999;SDS011;9633;50.980;13.850;2023-10-08T02:10:21;18.03;;;12.07;;
18999;SDS011;9633;50.980;13.850;2023-10-08T02:11:56;14.13;;;10.73;;
18999;SDS011;9633;50.980;13.850;2023-10-08T02:13:30;12.63;;;9.47;;
18999;SDS011;9633;50.980;13.850;2023-10-08T02:15:06;12.43;;;8.50;;
18999;SDS011;9633;50.980;13.850;2023-10-08T02:16:42;3.77;;;2.10;;
18999;SDS011;9633;50.980;13.850;2023-10-08T02:18:15;2.03;;;1.33;;
18999;SDS011;9633;50.980;13.850;2023-10-08T02:19:49;1.40;;;1.00;;
18999;SDS011;9633;50.980;13.850;2023-10-08T02:21:22;0.60;;;0.60;;
18999;SDS011;9633;50.980;13.850;2023-10-08T02:22:56;0.80;;;0.80;;
18999;SDS011;9633;50.980;13.850;2023-10-08T02:24:29;0.60;;;0.60;;
18999;SDS011;9633;50.980;13.850;2023-10-08T02:26:05;0.93;;;0.80;;
18999;SDS011;9633;50.980;13.850;2023-10-08T02:27:38;0.73;;;0.67;;
18999;SDS011;9633;50.980;13.850;2023-10-08T02:29:11;0.60;;;0.50;;
18999;SDS011;9633;50.980;13.850;2023-10-08T02:30:44;0.67;;;0.40;;
18999;SDS011;9633;50.980;13.850;2023-10-08T02:32:18;0.20;;;0.20;;
18999;SDS011;9633;50.980;13.850;2023-10-08T02:33:53;0.20;;;0.20;;
18999;SDS011;9633;50.980;13.850;2023-10-08T02:35:26;0.20;;;0.20;;
18999;SDS011;9633;50.980;13.850;2023-10-08T02:36:59;0.43;;;0.20;;
18999;SDS011;9633;50.980;13.850;2023-10-08T02:38:34;0.20;;;0.10;;
18999;SDS011;9633;50.980;13.850;2023-10-08T02:40:11;0.37;;;0.20;;
18999;SDS011;9633;50.980;13.850;2023-10-08T02:41:52;0.17;;;0.13;;
18999;SDS011;9633;50.980;13.850;2023-10-08T02:43:28;0.20;;;0.20;;
18999;SDS011;9633;50.980;13.850;2023-10-08T02:45:02;0.20;;;0.20;;
18999;SDS011;9633;50.980;13.850;2023-10-08T02:46:35;0.10;;;0.10;;
18999;SDS011;9633;50.980;13.850;2023-10-08T02:48:08;0.53;;;0.20;;
18999;SDS011;9633;50.980;13.850;2023-10-08T02:49:45;0.20;;;0.20;;
18999;SDS011;9633;50.980;13.850;2023-10-08T02:51:19;0.30;;;0.10;;
18999;SDS011;9633;50.980;13.850;2023-10-08T02:52:52;0.20;;;0.20;;
18999;SDS011;9633;50.980;13.850;2023-10-08T02:54:26;0.20;;;0.20;;
18999;SDS011;9633;50.980;13.850;2023-10-08T02:56:04;0.37;;;0.20;;
18999;SDS011;9633;50.980;13.850;2023-10-08T02:57:45;0.20;;;0.20;;
18999;SDS011;9633;50.980;13.850;2023-10-08T02:59:18;0.10;;;0.10;;
18999;SDS011;9633;50.980;13.850;2023-10-08T03:00:53;0.10;;;0.10;;
18999;SDS011;9633;50.980;13.850;2023-10-08T03:02:26;0.10;;;0.10;;
18999;SDS011;9633;50.980;13.850;2023-10-08T03:03:59;0.20;;;0.20;;
18999;SDS011;9633;50.980;13.850;2023-10-08T03:05:35;0.10;;;0.10;;
18999;SDS011;9633;50.980;13.850;2023-10-08T03:07:08;0.67;;;0.10;;
18999;SDS011;9633;50.980;13.850;2023-10-08T03:08:43;0.10;;;0.10;;
18999;SDS011;9633;50.980;13.850;2023-10-08T03:10:19;0.10;;;0.10;;
18999;SDS011;9633;50.980;13.850;2023-10-08T03:11:53;0.10;;;0.10;;
18999;SDS011;9633;50.980;13.850;2023-10-08T03:13:31;0.30;;;0.20;;
18999;SDS011;9633;50.980;13.850;2023-10-08T03:15:09;0.10;;;0.10;;
18999;SDS011;9633;50.980;13.850;2023-10-08T03:16:45;0.20;;;0.20;;
18999;SDS011;9633;50.980;13.850;2023-10-08T03:18:19;0.20;;;0.20;;
18999;SDS011;9633;50.980;13.850;2023-10-08T03:19:53;0.20;;;0.20;;
18999;SDS011;9633;50.980;13.850;2023-10-08T03:21:33;0.47;;;0.20;;
18999;SDS011;9633;50.980;13.850;2023-10-08T03:23:15;0.13;;;0.13;;
18999;SDS011;9633;50.980;13.850;2023-10-08T03:24:57;0.20;;;0.20;;
18999;SDS011;9633;50.980;13.850;2023-10-08T03:26:29;0.30;;;0.20;;
18999;SDS011;9633;50.980;13.850;2023-10-08T03:28:07;0.30;;;0.30;;
18999;SDS011;9633;50.980;13.850;2023-10-08T03:29:41;0.10;;;0.10;;
18999;SDS011;9633;50.980;13.850;2023-10-08T03:31:18;0.20;;;0.20;;
18999;SDS011;9633;50.980;13.850;2023-10-08T03:32:51;0.20;;;0.20;;
18999;SDS011;9633;50.980;13.850;2023-10-08T03:34:30;0.20;;;0.20;;
18999;SDS011;9633;50.980;13.850;2023-10-08T03:36:06;0.10;;;0.10;;
18999;SDS011;9633;50.980;13.850;2023-10-08T03:37:45;0.20;;;0.20;;
18999;SDS011;9633;50.980;13.850;2023-10-08T03:39:22;0.20;;;0.20;;
18999;SDS011;9633;50.980;13.850;2023-10-08T03:41:09;0.47;;;0.20;;
18999;SDS011;9633;50.980;13.850;2023-10-08T03:42:47;0.50;;;0.20;;
18999;SDS011;9633;50.980;13.850;2023-10-08T03:44:21;0.10;;;0.10;;
18999;SDS011;9633;50.980;13.850;2023-10-08T03:45:57;0.20;;;0.20;;
18999;SDS011;9633;50.980;13.850;2023-10-08T03:47:36;0.30;;;0.30;;
18999;SDS011;9633;50.980;13.850;2023-10-08T03:49:10;0.60;;;0.20;;
18999;SDS011;9633;50.980;13.850;2023-10-08T03:50:56;0.60;;;0.30;;
18999;SDS011;9633;50.980;13.850;2023-10-08T03:52:31;0.47;;;0.30;;
18999;SDS011;9633;50.980;13.850;2023-10-08T03:54:08;0.40;;;0.40;;
18999;SDS011;9633;50.980;13.850;2023-10-08T03:55:48;0.97;;;0.50;;
18999;SDS011;9633;50.980;13.850;2023-10-08T03:57:23;1.53;;;0.73;;
18999;SDS011;9633;50.980;13.850;2023-10-08T03:59:12;2.70;;;0.93;;
18999;SDS011;9633;50.980;13.850;2023-10-08T04:00:46;1.93;;;1.00;;
18999;SDS011;9633;50.980;13.850;2023-10-08T04:02:21;1.93;;;1.00;;
18999;SDS011;9633;50.980;13.850;2023-10-08T04:03:54;5.53;;;1.50;;
18999;SDS011;9633;50.980;13.850;2023-10-08T04:05:32;4.67;;;1.30;;
18999;SDS011;9633;50.980;13.850;2023-10-08T04:07:15;3.97;;;1.40;;
18999;SDS011;9633;50.980;13.850;2023-10-08T04:09:00;4.97;;;1.40;;
18999;SDS011;9633;50.980;13.850;2023-10-08T04:10:47;6.47;;;1.70;;
18999;SDS011;9633;50.980;13.850;2023-10-08T04:12:38;6.57;;;1.60;;
18999;SDS011;9633;50.980;13.850;2023-10-08T04:14:15;5.40;;;1.63;;
18999;SDS011;9633;50.980;13.850;2023-10-08T04:15:48;4.47;;;1.27;;
18999;SDS011;9633;50.980;13.850;2023-10-08T04:17:23;4.93;;;1.50;;
18999;SDS011;9633;50.980;13.850;2023-10-08T04:18:57;5.67;;;1.40;;
18999;SDS011;9633;50.980;13.850;2023-10-08T04:20:34;4.13;;;1.43;;
18999;SDS011;9633;50.980;13.850;2023-10-08T04:22:10;4.97;;;1.50;;
18999;SDS011;9633;50.980;13.850;2023-10-08T04:23:47;5.17;;;1.40;;
18999;SDS011;9633;50.980;13.850;2023-10-08T04:25:25;4.67;;;1.70;;
18999;SDS011;9633;50.980;13.850;2023-10-08T04:26:57;5.27;;;1.80;;
18999;SDS011;9633;50.980;13.850;2023-10-08T04:28:31;5.87;;;1.60;;
18999;SDS011;9633;50.980;13.850;2023-10-08T04:30:07;5.97;;;1.77;;
18999;SDS011;9633;50.980;13.850;2023-10-08T04:31:41;6.17;;;1.50;;
18999;SDS011;9633;50.980;13.850;2023-10-08T04:33:16;4.03;;;1.50;;
18999;SDS011;9633;50.980;13.850;2023-10-08T04:34:51;4.93;;;1.60;;
18999;SDS011;9633;50.980;13.850;2023-10-08T04:36:27;2.87;;;1.30;;
18999;SDS011;9633;50.980;13.850;2023-10-08T04:38:00;3.90;;;1.50;;
18999;SDS011;9633;50.980;13.850;2023-10-08T04:39:34;3.37;;;1.60;;
18999;SDS011;9633;50.980;13.850;2023-10-08T04:41:10;4.23;;;1.50;;
18999;SDS011;9633;50.980;13.850;2023-10-08T04:42:43;3.90;;;1.40;;
18999;SDS011;9633;50.980;13.850;2023-10-08T04:44:19;3.57;;;1.30;;
18999;SDS011;9633;50.980;13.850;2023-10-08T04:45:53;3.53;;;1.40;;
18999;SDS011;9633;50.980;13.850;2023-10-08T04:47:28;3.93;;;1.10;;
18999;SDS011;9633;50.980;13.850;2023-10-08T04:49:05;2.07;;;1.30;;
18999;SDS011;9633;50.980;13.850;2023-10-08T04:50:51;4.17;;;1.30;;
18999;SDS011;9633;50.980;13.850;2023-10-08T04:52:30;4.47;;;0.90;;
18999;SDS011;9633;50.980;13.850;2023-10-08T04:54:05;4.23;;;1.30;;
18999;SDS011;9633;50.980;13.850;2023-10-08T04:55:38;4.37;;;1.30;;
18999;SDS011;9633;50.980;13.850;2023-10-08T04:57:20;3.73;;;1.20;;
18999;SDS011;9633;50.980;13.850;2023-10-08T04:58:57;3.77;;;1.03;;
18999;SDS011;9633;50.980;13.850;2023-10-08T05:00:29;4.17;;;1.00;;
18999;SDS011;9633;50.980;13.850;2023-10-08T05:02:16;2.30;;;1.10;;
18999;SDS011;9633;50.980;13.850;2023-10-08T05:04:06;5.77;;;1.20;;
18999;SDS011;9633;50.980;13.850;2023-10-08T05:05:56;3.50;;;1.10;;
18999;SDS011;9633;50.980;13.850;2023-10-08T05:07:39;4.23;;;1.23;;
18999;SDS011;9633;50.980;13.850;2023-10-08T05:09:31;2.77;;;1.33;;
18999;SDS011;9633;50.980;13.850;2023-10-08T05:11:23;2.80;;;1.10;;
18999;SDS011;9633;50.980;13.850;2023-10-08T05:13:17;4.07;;;1.20;;
18999;SDS011;9633;50.980;13.850;2023-10-08T05:15:01;3.93;;;1.13;;
18999;SDS011;9633;50.980;13.850;2023-10-08T05:16:52;4.23;;;1.23;;
18999;SDS011;9633;50.980;13.850;2023-10-08T05:18:35;3.97;;;1.27;;
18999;SDS011;9633;50.980;13.850;2023-10-08T05:20:26;2.40;;;0.97;;
18999;SDS011;9633;50.980;13.850;2023-10-08T05:22:29;2.60;;;1.20;;
18999;SDS011;9633;50.980;13.850;2023-10-08T05:24:15;3.03;;;1.20;;
18999;SDS011;9633;50.980;13.850;2023-10-08T05:25:54;4.27;;;1.20;;
18999;SDS011;9633;50.980;13.850;2023-10-08T05:27:30;4.60;;;1.30;;
18999;SDS011;9633;50.980;13.850;2023-10-08T05:29:17;4.63;;;1.40;;
18999;SDS011;9633;50.980;13.850;2023-10-08T05:31:08;3.67;;;1.60;;
18999;SDS011;9633;50.980;13.850;2023-10-08T05:33:03;4.80;;;1.60;;
18999;SDS011;9633;50.980;13.850;2023-10-08T05:34:45;4.07;;;1.33;;
18999;SDS011;9633;50.980;13.850;2023-10-08T05:36:45;5.67;;;1.50;;
18999;SDS011;9633;50.980;13.850;2023-10-08T05:38:38;4.30;;;1.40;;
18999;SDS011;9633;50.980;13.850;2023-10-08T05:40:20;2.80;;;1.40;;
18999;SDS011;9633;50.980;13.850;2023-10-08T05:42:12;2.73;;;1.17;;
18999;SDS011;9633;50.980;13.850;2023-10-08T05:43:47;2.50;;;1.30;;
18999;SDS011;9633;50.980;13.850;2023-10-08T05:45:38;3.37;;;1.20;;
18999;SDS011;9633;50.980;13.850;2023-10-08T05:47:24;4.17;;;1.00;;
18999;SDS011;9633;50.980;13.850;2023-10-08T05:49:10;2.77;;;1.20;;
18999;SDS011;9633;50.980;13.850;2023-10-08T05:51:09;2.50;;;1.00;;
18999;SDS011;9633;50.980;13.850;2023-10-08T05:52:56;2.93;;;1.30;;
18999;SDS011;9633;50.980;13.850;2023-10-08T05:54:33;2.83;;;1.20;;
18999;SDS011;9633;50.980;13.850;2023-10-08T05:56:19;2.23;;;1.00;;
18999;SDS011;9633;50.980;13.850;2023-10-08T05:58:00;2.93;;;1.00;;
18999;SDS011;9633;50.980;13.850;2023-10-08T05:59:55;2.50;;;1.00;;
18999;SDS011;9633;50.980;13.850;2023-10-08T06:01:42;3.10;;;1.10;;
18999;SDS011;9633;50.980;13.850;2023-10-08T06:03:17;3.93;;;1.33;;
18999;SDS011;9633;50.980;13.850;2023-10-08T06:05:09;2.97;;;1.30;;
18999;SDS011;9633;50.980;13.850;2023-10-08T06:06:52;4.90;;;1.10;;
18999;SDS011;9633;50.980;13.850;2023-10-08T06:08:45;3.27;;;1.30;;
18999;SDS011;9633;50.980;13.850;2023-10-08T06:10:24;3.03;;;1.37;;
18999;SDS011;9633;50.980;13.850;2023-10-08T06:12:13;1.63;;;1.20;;
18999;SDS011;9633;50.980;13.850;2023-10-08T06:14:01;2.00;;;1.03;;
18999;SDS011;9633;50.980;13.850;2023-10-08T06:15:35;3.17;;;1.30;;
18999;SDS011;9633;50.980;13.850;2023-10-08T06:17:16;2.83;;;1.20;;
18999;SDS011;9633;50.980;13.850;2023-10-08T06:19:06;4.27;;;1.30;;
18999;SDS011;9633;50.980;13.850;2023-10-08T06:20:38;3.97;;;1.40;;
18999;SDS011;9633;50.980;13.850;2023-10-08T06:22:14;1.43;;;1.03;;
18999;SDS011;9633;50.980;13.850;2023-10-08T06:23:48;1.83;;;1.10;;
18999;SDS011;9633;50.980;13.850;2023-10-08T06:25:26;2.97;;;1.30;;
18999;SDS011;9633;50.980;13.850;2023-10-08T06:26:59;3.03;;;1.20;;
18999;SDS011;9633;50.980;13.850;2023-10-08T06:28:36;2.97;;;1.20;;
18999;SDS011;9633;50.980;13.850;2023-10-08T06:30:10;1.80;;;1.20;;
18999;SDS011;9633;50.980;13.850;2023-10-08T06:31:48;2.40;;;1.40;;
18999;SDS011;9633;50.980;13.850;2023-10-08T06:33:26;3.73;;;1.80;;
18999;SDS011;9633;50.980;13.850;2023-10-08T06:35:03;2.47;;;1.40;;
18999;SDS011;9633;50.980;13.850;2023-10-08T06:36:37;2.20;;;1.40;;
18999;SDS011;9633;50.980;13.850;2023-10-08T06:38:11;3.07;;;1.37;;
18999;SDS011;9633;50.980;13.850;2023-10-08T06:39:48;2.57;;;1.20;;
18999;SDS011;9633;50.980;13.850;2023-10-08T06:41:21;4.37;;;1.27;;
18999;SDS011;9633;50.980;13.850;2023-10-08T06:43:22;4.77;;;1.50;;
18999;SDS011;9633;50.980;13.850;2023-10-08T06:44:56;3.37;;;1.50;;
18999;SDS011;9633;50.980;13.850;2023-10-08T06:46:30;2.50;;;1.50;;
18999;SDS011;9633;50.980;13.850;2023-10-08T06:48:04;3.00;;;1.30;;
18999;SDS011;9633;50.980;13.850;2023-10-08T06:49:38;2.63;;;1.30;;
18999;SDS011;9633;50.980;13.850;2023-10-08T06:51:12;4.00;;;1.40;;
18999;SDS011;9633;50.980;13.850;2023-10-08T06:52:45;2.40;;;1.13;;
18999;SDS011;9633;50.980;13.850;2023-10-08T06:54:20;3.33;;;1.30;;
18999;SDS011;9633;50.980;13.850;2023-10-08T06:55:55;4.77;;;1.50;;
18999;SDS011;9633;50.980;13.850;2023-10-08T06:57:28;3.43;;;1.40;;
18999;SDS011;9633;50.980;13.850;2023-10-08T06:59:04;3.00;;;1.57;;
18999;SDS011;9633;50.980;13.850;2023-10-08T07:00:41;3.27;;;1.57;;
18999;SDS011;9633;50.980;13.850;2023-10-08T07:02:20;3.40;;;1.50;;
18999;SDS011;9633;50.980;13.850;2023-10-08T07:03:53;3.77;;;1.30;;
18999;SDS011;9633;50.980;13.850;2023-10-08T07:05:35;4.40;;;1.67;;
18999;SDS011;9633;50.980;13.850;2023-10-08T07:07:08;3.77;;;1.47;;
18999;SDS011;9633;50.980;13.850;2023-10-08T07:08:41;2.70;;;1.43;;
18999;SDS011;9633;50.980;13.850;2023-10-08T07:10:14;3.27;;;1.70;;
18999;SDS011;9633;50.980;13.850;2023-10-08T07:11:52;1.90;;;1.17;;
18999;SDS011;9633;50.980;13.850;2023-10-08T07:13:27;2.70;;;1.60;;
18999;SDS011;9633;50.980;13.850;2023-10-08T07:15:01;2.50;;;1.60;;
18999;SDS011;9633;50.980;13.850;2023-10-08T07:16:35;2.67;;;1.40;;
18999;SDS011;9633;50.980;13.850;2023-10-08T07:18:07;4.23;;;1.23;;
18999;SDS011;9633;50.980;13.850;2023-10-08T07:19:44;3.30;;;1.23;;
18999;SDS011;9633;50.980;13.850;2023-10-08T07:21:22;2.70;;;1.30;;
18999;SDS011;9633;50.980;13.850;2023-10-08T07:23:00;3.80;;;1.40;;
18999;SDS011;9633;50.980;13.850;2023-10-08T07:24:33;2.47;;;1.43;;
18999;SDS011;9633;50.980;13.850;2023-10-08T07:26:08;3.20;;;1.47;;
18999;SDS011;9633;50.980;13.850;2023-10-08T07:27:44;2.77;;;1.30;;
18999;SDS011;9633;50.980;13.850;2023-10-08T07:29:17;2.93;;;1.37;;
18999;SDS011;9633;50.980;13.850;2023-10-08T07:30:51;18.43;;;14.00;;
18999;SDS011;9633;50.980;13.850;2023-10-08T07:32:24;3.10;;;1.63;;
18999;SDS011;9633;50.980;13.850;2023-10-08T07:33:58;3.53;;;1.63;;
18999;SDS011;9633;50.980;13.850;2023-10-08T07:35:47;2.57;;;1.37;;
18999;SDS011;9633;50.980;13.850;2023-10-08T07:37:35;3.17;;;1.50;;
18999;SDS011;9633;50.980;13.850;2023-10-08T07:39:07;2.13;;;1.37;;
18999;SDS011;9633;50.980;13.850;2023-10-08T07:40:55;2.73;;;1.53;;
18999;SDS011;9633;50.980;13.850;2023-10-08T07:42:28;2.27;;;1.50;;
18999;SDS011;9633;50.980;13.850;2023-10-08T07:44:04;3.67;;;1.90;;
18999;SDS011;9633;50.980;13.850;2023-10-08T07:45:38;2.80;;;1.53;;
18999;SDS011;9633;50.980;13.850;2023-10-08T07:47:16;3.43;;;1.40;;
18999;SDS011;9633;50.980;13.850;2023-10-08T07:48:53;3.97;;;1.60;;
18999;SDS011;9633;50.980;13.850;2023-10-08T07:50:26;3.27;;;1.83;;
18999;SDS011;9633;50.980;13.850;2023-10-08T07:52:00;3.27;;;1.70;;
18999;SDS011;9633;50.980;13.850;2023-10-08T07:53:35;3.63;;;1.63;;
18999;SDS011;9633;50.980;13.850;2023-10-08T07:55:10;2.77;;;2.20;;
18999;SDS011;9633;50.980;13.850;2023-10-08T07:56:49;3.63;;;1.90;;
18999;SDS011;9633;50.980;13.850;2023-10-08T07:58:23;2.23;;;1.63;;
18999;SDS011;9633;50.980;13.850;2023-10-08T07:59:58;2.10;;;1.70;;
18999;SDS011;9633;50.980;13.850;2023-10-08T08:01:49;2.27;;;1.77;;
18999;SDS011;9633;50.980;13.850;2023-10-08T08:03:24;2.80;;;1.80;;
18999;SDS011;9633;50.980;13.850;2023-10-08T08:04:56;4.53;;;1.90;;
18999;SDS011;9633;50.980;13.850;2023-10-08T08:06:29;3.67;;;2.30;;
18999;SDS011;9633;50.980;13.850;2023-10-08T08:08:05;4.50;;;1.97;;
18999;SDS011;9633;50.980;13.850;2023-10-08T08:09:38;2.63;;;1.70;;
18999;SDS011;9633;50.980;13.850;2023-10-08T08:11:19;2.60;;;1.80;;
18999;SDS011;9633;50.980;13.850;2023-10-08T08:12:57;3.97;;;2.00;;
18999;SDS011;9633;50.980;13.850;2023-10-08T08:14:30;2.97;;;1.77;;
18999;SDS011;9633;50.980;13.850;2023-10-08T08:16:04;2.67;;;1.93;;
18999;SDS011;9633;50.980;13.850;2023-10-08T08:17:48;3.30;;;2.10;;
18999;SDS011;9633;50.980;13.850;2023-10-08T08:19:21;3.67;;;2.03;;
18999;SDS011;9633;50.980;13.850;2023-10-08T08:20:55;3.37;;;2.10;;
18999;SDS011;9633;50.980;13.850;2023-10-08T08:22:33;2.60;;;1.77;;
18999;SDS011;9633;50.980;13.850;2023-10-08T08:24:12;3.87;;;1.70;;
18999;SDS011;9633;50.980;13.850;2023-10-08T08:25:45;2.40;;;1.60;;
18999;SDS011;9633;50.980;13.850;2023-10-08T08:27:26;3.17;;;1.60;;
18999;SDS011;9633;50.980;13.850;2023-10-08T08:29:03;3.60;;;1.50;;
18999;SDS011;9633;50.980;13.850;2023-10-08T08:30:36;2.87;;;1.70;;
18999;SDS011;9633;50.980;13.850;2023-10-08T08:32:12;3.27;;;1.50;;
18999;SDS011;9633;50.980;13.850;2023-10-08T08:33:46;2.77;;;1.50;;
18999;SDS011;9633;50.980;13.850;2023-10-08T08:35:28;2.67;;;1.43;;
18999;SDS011;9633;50.980;13.850;2023-10-08T08:37:03;2.40;;;1.20;;
18999;SDS011;9633;50.980;13.850;2023-10-08T08:38:36;2.27;;;1.57;;
18999;SDS011;9633;50.980;13.850;2023-10-08T08:40:10;4.23;;;1.80;;
18999;SDS011;9633;50.980;13.850;2023-10-08T08:41:48;2.73;;;1.37;;
18999;SDS011;9633;50.980;13.850;2023-10-08T08:43:24;3.77;;;1.47;;
18999;SDS011;9633;50.980;13.850;2023-10-08T08:45:02;3.00;;;1.73;;
18999;SDS011;9633;50.980;13.850;2023-10-08T08:46:39;1.97;;;1.50;;
18999;SDS011;9633;50.980;13.850;2023-10-08T08:48:14;2.37;;;1.50;;
18999;SDS011;9633;50.980;13.850;2023-10-08T08:49:50;3.17;;;1.63;;
18999;SDS011;9633;50.980;13.850;2023-10-08T08:51:27;4.50;;;1.63;;
18999;SDS011;9633;50.980;13.850;2023-10-08T08:53:01;2.90;;;1.70;;
18999;SDS011;9633;50.980;13.850;2023-10-08T08:54:36;3.70;;;1.70;;
18999;SDS011;9633;50.980;13.850;2023-10-08T08:56:12;4.47;;;1.90;;
18999;SDS011;9633;50.980;13.850;2023-10-08T08:57:47;3.10;;;1.70;;
18999;SDS011;9633;50.980;13.850;2023-10-08T08:59:21;3.77;;;1.70;;
18999;SDS011;9633;50.980;13.850;2023-10-08T09:00:54;3.97;;;1.50;;
18999;SDS011;9633;50.980;13.850;2023-10-08T09:02:27;2.53;;;1.57;;
18999;SDS011;9633;50.980;13.850;2023-10-08T09:04:05;4.40;;;1.90;;
18999;SDS011;9633;50.980;13.850;2023-10-08T09:05:39;3.87;;;1.60;;
18999;SDS011;9633;50.980;13.850;2023-10-08T09:07:12;5.17;;;1.80;;
18999;SDS011;9633;50.980;13.850;2023-10-08T09:08:45;3.53;;;1.80;;
18999;SDS011;9633;50.980;13.850;2023-10-08T09:10:20;4.40;;;2.10;;
18999;SDS011;9633;50.980;13.850;2023-10-08T09:11:58;4.67;;;1.80;;
18999;SDS011;9633;50.980;13.850;2023-10-08T09:13:32;3.83;;;1.97;;
18999;SDS011;9633;50.980;13.850;2023-10-08T09:15:04;5.90;;;1.90;;
18999;SDS011;9633;50.980;13.850;2023-10-08T09:16:40;6.53;;;2.00;;
18999;SDS011;9633;50.980;13.850;2023-10-08T09:18:12;4.17;;;2.03;;
18999;SDS011;9633;50.980;13.850;2023-10-08T09:19:49;6.20;;;2.07;;
18999;SDS011;9633;50.980;13.850;2023-10-08T09:21:26;5.70;;;2.20;;
18999;SDS011;9633;50.980;13.850;2023-10-08T09:23:05;5.33;;;1.80;;
18999;SDS011;9633;50.980;13.850;2023-10-08T09:24:39;4.07;;;1.90;;
18999;SDS011;9633;50.980;13.850;2023-10-08T09:26:16;3.70;;;1.90;;
18999;SDS011;9633;50.980;13.850;2023-10-08T09:27:50;3.27;;;1.70;;
18999;SDS011;9633;50.980;13.850;2023-10-08T09:29:27;2.53;;;2.13;;
18999;SDS011;9633;50.980;13.850;2023-10-08T09:31:01;3.97;;;1.93;;
18999;SDS011;9633;50.980;13.850;2023-10-08T09:32:38;5.10;;;2.30;;
18999;SDS011;9633;50.980;13.850;2023-10-08T09:34:12;5.93;;;2.00;;
18999;SDS011;9633;50.980;13.850;2023-10-08T09:35:49;6.67;;;2.60;;
18999;SDS011;9633;50.980;13.850;2023-10-08T09:37:27;6.53;;;2.17;;
18999;SDS011;9633;50.980;13.850;2023-10-08T09:39:02;6.60;;;2.50;;
18999;SDS011;9633;50.980;13.850;2023-10-08T09:40:36;6.63;;;2.50;;
18999;SDS011;9633;50.980;13.850;2023-10-08T09:42:10;4.83;;;2.63;;
18999;SDS011;9633;50.980;13.850;2023-10-08T09:43:44;8.27;;;2.57;;
18999;SDS011;9633;50.980;13.850;2023-10-08T09:45:19;6.63;;;2.50;;